To NAV CANADA Home Page Login to a new session Search on AWWS site Feedback and Comments Disclaimer Vers la page française équivalente Tips FAQ What's new on the site To the Forecasts and Observations / NOTAM section To "File a Flight Plan" website Publications and other links Update of the User's profile FIC Telephone Numbers My Weather Data Folder Route Weather Data Regional Weather Data Local Weather Data To the Forecasts and Observations / NOTAM section
Request Generated 07/08/2015 at 00:18:53 UTC . Weather information available at that time is displayed.

METAR/TAF

OTTAWA/GATINEAU/QC    

SPECI CYND 080012Z 21005G16KT 10SM FEW045TCU OVC070 24/21 A2974 RMK
TCU2AC6 SLP071 DENSITY ALT 1500FT=
METAR CYND 080000Z 22011G19KT 10SM -SHRA FEW045TCU OVC070 25/21 A2975
RMK TCU2AC6 SLP073 DENSITY ALT 1500FT=
SPECI CYND 072334Z 21007KT 170V240 8SM -SHRA BKN045TCU OVC080 27/20
A2974 RMK TCU5AC3 SLP070 DENSITY ALT 1700FT=
METAR CYND 072300Z 18010G16KT 160V220 12SM BKN045TCU OVC080 27/20
A2974 RMK TCU5AC3 SLP070 DENSITY ALT 1800FT=
METAR CYND 072200Z 21007KT 12SM BKN050 OVC080 28/20 A2975 RMK CU5AC3
SLP075 DENSITY ALT 1900FT=

TAF CYND 071738Z 0718/0801 19012G22KT P6SM BKN025 BKN240
FM072200 21012G22KT P6SM BKN040 TEMPO 0722/0801 4SM -SHRA BR
BKN020 PROB30 0800/0801 2SM TSRA BR BKN008 OVC020CB
RMK NXT FCST WILL BE ISSUED AT 081245Z=
Your time UTC time
Weather data provided by Environment Canada and NAV CANADA